Time;durP1;ratioP1;P1;durP2;ratioP2;P2;SDS_P1;SDS_P2;PMS_P1;PMS_P2;Temp;Humidity;BMP_temperature;BMP_pressure;BME280_temperature;BME280_humidity;BME280_pressure;Samples;Min_cycle;Max_cycle;Signal;HPM_P1;HPM_P2
2021/03/19 00:01:03;;;;;;;;;8.00;5.00;;;;;;;;4980784;28;112612;-78
2021/03/19 00:03:29;;;;;;;;;7.00;7.00;;;;;;;;4977561;28;111979;-79
2021/03/19 00:05:55;;;;;;;;;10.33;8.67;;;;;;;;4978469;28;113976;-79
2021/03/19 00:08:21;;;;;;;;;7.00;7.00;;;;;;;;4980647;28;114138;-78
2021/03/19 00:10:47;;;;;;;;;9.67;8.00;;;;;;;;4978256;28;113411;-77
2021/03/19 00:13:13;;;;;;;;;6.33;5.00;;;;;;;;4977768;28;113822;-78
2021/03/19 00:15:39;;;;;;;;;10.00;8.00;;;;;;;;4978227;28;112208;-77
2021/03/19 00:18:07;;;;;;;;;8.00;7.00;;;;;;;;4977738;28;113805;-78
2021/03/19 00:20:34;;;;;;;;;7.67;7.67;;;;;;;;4977419;28;114097;-77
2021/03/19 00:23:00;;;;;;;;;4.67;4.67;;;;;;;;4977804;28;112024;-77
2021/03/19 00:25:26;;;;;;;;;6.33;6.33;;;;;;;;4973271;28;113509;-77
2021/03/19 00:27:52;;;;;;;;;8.00;7.33;;;;;;;;4981385;28;116477;-78
2021/03/19 00:30:21;;;;;;;;;13.33;10.00;;;;;;;;4977759;28;113683;-78
2021/03/19 00:32:47;;;;;;;;;7.00;5.00;;;;;;;;4977461;28;114079;-76
2021/03/19 00:35:14;;;;;;;;;6.33;6.33;;;;;;;;4977716;28;111941;-77
2021/03/19 00:37:40;;;;;;;;;7.67;7.67;;;;;;;;4977757;28;113502;-77
2021/03/19 00:40:07;;;;;;;;;12.33;7.00;;;;;;;;4976564;28;114215;-77
2021/03/19 00:42:33;;;;;;;;;8.00;5.00;;;;;;;;4977526;28;111967;-76
2021/03/19 00:45:01;;;;;;;;;10.00;5.00;;;;;;;;4977465;28;116158;-76
2021/03/19 00:47:27;;;;;;;;;10.00;10.00;;;;;;;;4973113;28;114084;-77
2021/03/19 00:49:53;;;;;;;;;11.67;11.00;;;;;;;;4981516;28;112008;-76
2021/03/19 00:52:20;;;;;;;;;8.00;8.00;;;;;;;;4976655;28;113400;-76
2021/03/19 00:54:46;;;;;;;;;8.00;8.00;;;;;;;;4977831;28;113347;-76
2021/03/19 00:57:12;;;;;;;;;7.00;7.00;;;;;;;;4977949;28;113505;-76
2021/03/19 00:59:38;;;;;;;;;6.33;6.33;;;;;;;;4976907;28;114172;-78
2021/03/19 01:02:04;;;;;;;;;6.33;6.33;;;;;;;;4976873;28;112039;-78
2021/03/19 01:04:30;;;;;;;;;8.00;7.67;;;;;;;;4977251;28;113394;-78
2021/03/19 01:06:56;;;;;;;;;15.33;7.33;;;;;;;;4976730;28;115441;-78
2021/03/19 01:09:23;;;;;;;;;11.33;6.33;;;;;;;;4976876;28;112207;-78
2021/03/19 01:11:49;;;;;;;;;11.33;7.00;;;;;;;;4979933;28;113887;-78
2021/03/19 01:14:15;;;;;;;;;2.00;1.00;;;;;;;;4976430;28;113115;-77
2021/03/19 01:16:42;;;;;;;;;12.33;7.00;;;;;;;;4977589;28;113493;-78
2021/03/19 01:19:08;;;;;;;;;8.00;7.33;;;;;;;;4976199;28;114282;-77
2021/03/19 01:21:36;;;;;;;;;10.00;8.00;;;;;;;;4976471;28;112330;-77
2021/03/19 01:24:02;;;;;;;;;8.00;7.00;;;;;;;;4976917;28;113589;-77
2021/03/19 01:26:29;;;;;;;;;10.33;7.67;;;;;;;;4976000;28;114041;-77
2021/03/19 01:28:55;;;;;;;;;8.00;8.00;;;;;;;;4977158;28;111968;-77
2021/03/19 01:31:21;;;;;;;;;7.33;7.33;;;;;;;;4977411;28;113443;-78
2021/03/19 01:33:47;;;;;;;;;13.33;8.00;;;;;;;;4981553;28;114102;-77
2021/03/19 01:36:14;;;;;;;;;7.67;4.67;;;;;;;;4980310;28;113453;-78
2021/03/19 01:38:40;;;;;;;;;13.00;10.25;;;;;;;;4979067;28;114998;-77
2021/03/19 01:41:06;;;;;;;;;12.00;8.50;;;;;;;;4979684;28;112958;-77
2021/03/19 01:43:34;;;;;;;;;9.50;8.50;;;;;;;;4976937;28;113504;-77
2021/03/19 01:46:15;;;;;;;;;13.25;10.25;;;;;;;;4975511;28;114062;-77
2021/03/19 01:48:59;;;;;;;;;12.50;7.25;;;;;;;;4941660;28;112175;-77
2021/03/19 01:51:43;;;;;;;;;8.00;7.00;;;;;;;;4976378;28;113620;-77
2021/03/19 01:54:28;;;;;;;;;10.00;7.50;;;;;;;;4973381;28;114258;-77
2021/03/19 01:57:12;;;;;;;;;9.25;7.50;;;;;;;;4980237;28;112411;-77
2021/03/19 01:59:57;;;;;;;;;9.25;5.75;;;;;;;;4973402;28;114436;-77
2021/03/19 02:02:41;;;;;;;;;8.00;6.00;;;;;;;;4975375;28;111985;-77
2021/03/19 02:05:26;;;;;;;;;12.75;9.00;;;;;;;;4974016;28;114013;-77
2021/03/19 02:08:10;;;;;;;;;9.50;5.25;;;;;;;;4975704;28;114157;-76
2021/03/19 02:10:54;;;;;;;;;9.25;9.25;;;;;;;;4973872;28;112934;-75
2021/03/19 02:13:39;;;;;;;;;8.00;6.50;;;;;;;;4976712;28;113657;-75
2021/03/19 02:16:23;;;;;;;;;6.75;6.00;;;;;;;;4973252;28;114159;-77
2021/03/19 02:19:07;;;;;;;;;7.00;6.00;;;;;;;;4975515;28;113162;-77
2021/03/19 02:21:52;;;;;;;;;7.00;6.75;;;;;;;;4976262;28;113496;-77
2021/03/19 02:24:36;;;;;;;;;10.00;6.00;;;;;;;;4979381;28;111913;-78
2021/03/19 02:27:21;;;;;;;;;11.00;8.00;;;;;;;;4976171;28;114902;-77
2021/03/19 02:30:05;;;;;;;;;8.50;6.00;;;;;;;;4978730;28;113860;-78
2021/03/19 02:32:32;;;;;;;;;10.50;9.00;;;;;;;;4976325;28;112629;-77
2021/03/19 02:35:00;;;;;;;;;7.50;7.00;;;;;;;;4978738;28;114254;-77
2021/03/19 02:37:27;;;;;;;;;11.50;8.50;;;;;;;;4975473;28;114216;-77
2021/03/19 02:39:54;;;;;;;;;6.25;6.00;;;;;;;;4978935;28;111958;-77
2021/03/19 02:42:22;;;;;;;;;6.00;6.00;;;;;;;;4982943;28;113461;-77
2021/03/19 02:44:48;;;;;;;;;12.00;7.00;;;;;;;;5024209;28;112986;-78
2021/03/19 02:47:15;;;;;;;;;6.75;6.00;;;;;;;;5081372;28;8706;-78
2021/03/19 02:49:42;;;;;;;;;4.00;3.75;;;;;;;;5080862;28;8689;-78
2021/03/19 02:52:08;;;;;;;;;6.00;5.50;;;;;;;;5062420;28;8674;-77
2021/03/19 02:54:34;;;;;;;;;6.00;4.00;;;;;;;;5081309;28;8843;-78
2021/03/19 02:57:00;;;;;;;;;8.50;5.00;;;;;;;;5080043;28;8693;-77
2021/03/19 02:59:27;;;;;;;;;12.25;6.00;;;;;;;;5081169;28;8678;-77
2021/03/19 03:01:53;;;;;;;;;6.00;6.00;;;;;;;;5080144;28;8820;-77
2021/03/19 03:04:19;;;;;;;;;6.25;6.00;;;;;;;;5080608;28;8689;-78
2021/03/19 03:06:48;;;;;;;;;6.50;6.50;;;;;;;;5079761;28;9525;-78
2021/03/19 03:09:16;;;;;;;;;8.50;7.00;;;;;;;;5080392;28;8755;-76
2021/03/19 03:11:42;;;;;;;;;7.00;6.00;;;;;;;;5080640;28;8674;-77
2021/03/19 03:14:10;;;;;;;;;7.50;6.50;;;;;;;;5080486;28;9599;-75
2021/03/19 03:16:36;;;;;;;;;7.25;7.25;;;;;;;;5080808;28;8757;-76
2021/03/19 03:19:03;;;;;;;;;7.50;4.50;;;;;;;;5080366;28;8673;-77
2021/03/19 03:21:29;;;;;;;;;4.00;4.00;;;;;;;;5079948;28;8750;-77
2021/03/19 03:23:56;;;;;;;;;8.00;4.50;;;;;;;;5079695;28;8700;-77
2021/03/19 03:26:22;;;;;;;;;8.50;5.50;;;;;;;;5080315;28;8777;-77
2021/03/19 03:28:48;;;;;;;;;4.00;4.00;;;;;;;;5079587;28;8797;-77
2021/03/19 03:31:14;;;;;;;;;4.00;4.00;;;;;;;;5079518;28;8674;-76
2021/03/19 03:33:40;;;;;;;;;6.25;5.50;;;;;;;;5078729;28;8773;-77
2021/03/19 03:36:06;;;;;;;;;4.00;4.00;;;;;;;;5080550;28;8775;-77
2021/03/19 03:38:33;;;;;;;;;5.50;4.00;;;;;;;;5080058;28;8666;-77
2021/03/19 03:41:02;;;;;;;;;4.00;4.00;;;;;;;;5079381;28;8736;-77
2021/03/19 03:43:29;;;;;;;;;8.50;8.50;;;;;;;;5079777;28;8744;-73
2021/03/19 03:45:55;;;;;;;;;6.00;6.00;;;;;;;;5079210;28;8764;-76
2021/03/19 03:48:22;;;;;;;;;4.00;4.00;;;;;;;;5079969;28;9442;-76
2021/03/19 03:50:49;;;;;;;;;6.25;6.00;;;;;;;;5079383;28;8678;-75
2021/03/19 03:53:16;;;;;;;;;9.25;6.00;;;;;;;;5079025;28;8850;-75
2021/03/19 03:55:42;;;;;;;;;6.75;6.75;;;;;;;;5079703;28;9501;-75
2021/03/19 03:58:11;;;;;;;;;9.75;6.75;;;;;;;;5079273;28;8685;-75
2021/03/19 04:00:38;;;;;;;;;6.75;5.50;;;;;;;;5079333;28;8737;-74
2021/03/19 04:03:05;;;;;;;;;7.25;7.25;;;;;;;;5078644;28;9406;-75
2021/03/19 04:05:33;;;;;;;;;9.50;7.00;;;;;;;;5079700;28;8677;-75
2021/03/19 04:07:59;;;;;;;;;6.00;6.00;;;;;;;;5079224;28;8725;-75
2021/03/19 04:10:25;;;;;;;;;9.50;7.00;;;;;;;;5080336;28;9469;-74
2021/03/19 04:12:51;;;;;;;;;8.50;7.00;;;;;;;;5079382;28;8730;-74
2021/03/19 04:15:19;;;;;;;;;6.00;6.00;;;;;;;;5079183;28;8769;-73
2021/03/19 04:17:46;;;;;;;;;7.00;7.00;;;;;;;;5079668;28;8673;-73
2021/03/19 04:20:14;;;;;;;;;7.00;7.00;;;;;;;;5078960;28;9513;-74
2021/03/19 04:22:40;;;;;;;;;7.50;7.50;;;;;;;;5079130;28;8674;-74
2021/03/19 04:25:06;;;;;;;;;7.50;7.00;;;;;;;;5079068;28;8689;-75
2021/03/19 04:27:33;;;;;;;;;14.50;8.00;;;;;;;;5079164;28;8769;-74
2021/03/19 04:29:59;;;;;;;;;9.00;6.00;;;;;;;;5079084;28;9636;-75
2021/03/19 04:32:26;;;;;;;;;9.00;7.00;;;;;;;;5079309;28;8808;-73
2021/03/19 04:34:52;;;;;;;;;11.00;7.00;;;;;;;;5074699;28;8725;-74
2021/03/19 04:37:19;;;;;;;;;6.00;6.00;;;;;;;;5078861;28;8658;-74
2021/03/19 04:39:46;;;;;;;;;6.00;3.00;;;;;;;;5079027;28;8771;-73
2021/03/19 04:42:12;;;;;;;;;3.50;3.50;;;;;;;;5078657;28;8654;-73
2021/03/19 04:44:39;;;;;;;;;6.25;4.00;;;;;;;;5077419;28;8674;-73
2021/03/19 04:47:06;;;;;;;;;6.00;3.50;;;;;;;;5079086;28;8769;-74
2021/03/19 04:49:33;;;;;;;;;4.00;3.00;;;;;;;;5078664;28;8714;-74
2021/03/19 04:51:59;;;;;;;;;7.00;6.25;;;;;;;;5078416;28;9555;-73
2021/03/19 04:54:25;;;;;;;;;6.25;6.00;;;;;;;;5078350;28;8717;-74
2021/03/19 04:56:51;;;;;;;;;4.00;4.00;;;;;;;;5078117;28;8686;-74
2021/03/19 04:59:17;;;;;;;;;5.50;4.50;;;;;;;;5078319;28;8739;-74
2021/03/19 05:01:47;;;;;;;;;5.00;3.00;;;;;;;;5077334;28;9620;-75
2021/03/19 05:04:13;;;;;;;;;5.00;4.00;;;;;;;;5078020;28;8665;-74
2021/03/19 05:06:40;;;;;;;;;4.00;4.00;;;;;;;;5078736;28;8871;-74
2021/03/19 05:09:06;;;;;;;;;3.00;3.00;;;;;;;;5078392;28;8749;-74
2021/03/19 05:11:32;;;;;;;;;4.00;4.00;;;;;;;;5078025;28;8674;-75
2021/03/19 05:13:58;;;;;;;;;7.00;6.00;;;;;;;;5078761;28;8701;-75
2021/03/19 05:16:24;;;;;;;;;5.00;4.50;;;;;;;;5071873;28;8666;-75
2021/03/19 05:18:50;;;;;;;;;4.00;4.00;;;;;;;;5077968;28;8804;-74
2021/03/19 05:21:16;;;;;;;;;11.25;6.00;;;;;;;;5077867;28;8824;-74
2021/03/19 05:23:43;;;;;;;;;3.75;3.00;;;;;;;;5077733;28;8669;-74
2021/03/19 05:26:09;;;;;;;;;6.75;4.00;;;;;;;;5078601;28;8773;-74
2021/03/19 05:28:35;;;;;;;;;4.00;4.00;;;;;;;;5078375;28;8765;-75
2021/03/19 05:31:01;;;;;;;;;12.75;10.00;;;;;;;;5077997;28;8685;-75
2021/03/19 05:33:29;;;;;;;;;20.75;11.50;;;;;;;;5077451;28;8718;-73
2021/03/19 05:35:56;;;;;;;;;8.25;7.25;;;;;;;;5077862;28;8710;-74
2021/03/19 05:38:22;;;;;;;;;10.75;7.75;;;;;;;;5073776;28;8815;-75
2021/03/19 05:40:50;;;;;;;;;10.00;7.25;;;;;;;;5078228;28;9679;-73
2021/03/19 05:43:23;;;;;;;;;10.25;8.00;;;;;;;;5077678;28;8780;-73
2021/03/19 05:45:51;;;;;;;;;10.00;8.00;;;;;;;;5077911;28;8729;-73
2021/03/19 05:48:18;;;;;;;;;8.75;8.50;;;;;;;;5077704;28;8729;-74
2021/03/19 05:50:44;;;;;;;;;11.50;10.50;;;;;;;;5077965;28;8661;-74
2021/03/19 05:53:10;;;;;;;;;10.00;8.00;;;;;;;;5078262;28;8769;-73
2021/03/19 05:55:37;;;;;;;;;10.25;8.00;;;;;;;;5077078;28;8855;-74
2021/03/19 05:58:05;;;;;;;;;10.50;10.50;;;;;;;;5077893;28;8783;-74
2021/03/19 06:00:31;;;;;;;;;7.50;7.50;;;;;;;;5076911;28;9535;-73
2021/03/19 06:02:57;;;;;;;;;8.00;8.00;;;;;;;;5077267;28;8694;-73
2021/03/19 06:05:26;;;;;;;;;8.00;8.00;;;;;;;;5078034;28;8781;-74
2021/03/19 06:07:53;;;;;;;;;10.50;10.50;;;;;;;;5073285;28;8674;-73
2021/03/19 06:10:27;;;;;;;;;11.50;11.50;;;;;;;;5078059;28;8797;-76
2021/03/19 06:12:55;;;;;;;;;8.50;8.25;;;;;;;;5073576;28;8737;-73
2021/03/19 06:15:27;;;;;;;;;19.25;17.00;;;;;;;;5073500;28;8670;-73
2021/03/19 06:17:54;;;;;;;;;13.75;10.00;;;;;;;;5073743;28;8654;-73
2021/03/19 06:20:20;;;;;;;;;10.75;8.75;;;;;;;;5077365;28;8733;-74
2021/03/19 06:22:47;;;;;;;;;16.50;10.25;;;;;;;;5076952;28;8685;-74
2021/03/19 06:25:18;;;;;;;;;11.00;11.00;;;;;;;;5077771;28;8761;-83
2021/03/19 06:27:48;;;;;;;;;8.50;7.25;;;;;;;;5076971;28;8697;-75
2021/03/19 06:30:21;;;;;;;;;15.25;12.00;;;;;;;;5077519;28;8708;-80
2021/03/19 06:32:59;;;;;;;;;11.25;11.25;;;;;;;;5077002;28;8733;-75
2021/03/19 06:35:30;;;;;;;;;12.50;10.00;;;;;;;;5073774;28;8720;-76
2021/03/19 06:38:16;;;;;;;;;9.25;9.25;;;;;;;;5073360;28;8710;-74
2021/03/19 06:40:42;;;;;;;;;12.25;10.25;;;;;;;;5076034;28;8821;-75
2021/03/19 06:43:17;;;;;;;;;14.75;11.00;;;;;;;;5077285;28;8708;-76
2021/03/19 06:45:44;;;;;;;;;9.00;9.00;;;;;;;;5077203;28;9647;-75
2021/03/19 06:48:24;;;;;;;;;19.50;9.50;;;;;;;;5074727;28;8662;-74
2021/03/19 06:50:51;;;;;;;;;11.00;9.00;;;;;;;;5076300;28;8697;-74
2021/03/19 06:53:22;;;;;;;;;7.00;5.50;;;;;;;;5077089;28;9120;-72
2021/03/19 06:55:51;;;;;;;;;14.50;10.50;;;;;;;;5062621;28;8762;-73
2021/03/19 06:58:30;;;;;;;;;14.75;11.00;;;;;;;;5065731;28;8674;-72
2021/03/19 07:00:56;;;;;;;;;11.00;11.00;;;;;;;;5072528;28;8752;-75
2021/03/19 07:03:36;;;;;;;;;8.50;8.00;;;;;;;;5071014;28;8688;-73
2021/03/19 07:06:20;;;;;;;;;12.25;10.25;;;;;;;;5072670;28;8757;-74
2021/03/19 07:08:50;;;;;;;;;11.75;7.75;;;;;;;;5076376;28;8717;-74
2021/03/19 07:11:28;;;;;;;;;10.75;8.00;;;;;;;;5078863;28;8727;-80
2021/03/19 07:14:05;;;;;;;;;10.00;8.00;;;;;;;;5074506;28;8785;-74
2021/03/19 07:16:37;;;;;;;;;11.00;10.00;;;;;;;;5075877;28;8685;-75
2021/03/19 07:19:10;;;;;;;;;10.75;10.75;;;;;;;;5077830;28;8700;-72
2021/03/19 07:21:54;;;;;;;;;14.00;9.75;;;;;;;;5078261;28;8765;-73
2021/03/19 07:24:34;;;;;;;;;14.75;11.00;;;;;;;;5078658;28;8741;-73
2021/03/19 07:27:01;;;;;;;;;20.25;17.00;;;;;;;;5075872;28;8713;-73
2021/03/19 07:29:40;;;;;;;;;26.50;18.25;;;;;;;;5077514;28;8749;-73
2021/03/19 07:32:27;;;;;;;;;20.00;15.50;;;;;;;;5077709;28;8673;-72
2021/03/19 07:35:06;;;;;;;;;9.25;8.00;;;;;;;;5069087;28;8741;-72
2021/03/19 07:37:46;;;;;;;;;18.25;15.00;;;;;;;;5075336;28;8709;-73
2021/03/19 07:40:23;;;;;;;;;17.25;14.50;;;;;;;;5078276;28;8574;-73
2021/03/19 07:43:06;;;;;;;;;18.75;16.50;;;;;;;;5078000;28;8753;-72
2021/03/19 07:45:33;;;;;;;;;18.00;15.00;;;;;;;;5075879;28;8686;-73
2021/03/19 07:48:10;;;;;;;;;18.50;15.75;;;;;;;;5078294;28;8669;-72
2021/03/19 07:50:38;;;;;;;;;16.00;14.25;;;;;;;;5077744;28;8764;-73
2021/03/19 07:53:16;;;;;;;;;12.25;11.25;;;;;;;;5075578;28;8731;-72
2021/03/19 07:55:48;;;;;;;;;14.25;14.25;;;;;;;;5070148;28;9459;-72
2021/03/19 07:58:23;;;;;;;;;14.75;13.25;;;;;;;;5075517;28;8681;-73
2021/03/19 08:00:52;;;;;;;;;15.25;12.50;;;;;;;;5077055;28;8674;-73
2021/03/19 08:03:22;;;;;;;;;19.50;16.25;;;;;;;;5075678;28;8761;-73
2021/03/19 08:05:51;;;;;;;;;19.50;15.50;;;;;;;;5077076;28;8863;-74
2021/03/19 08:08:19;;;;;;;;;15.25;14.50;;;;;;;;5078214;28;8662;-73
2021/03/19 08:10:57;;;;;;;;;22.00;17.25;;;;;;;;5076989;28;8729;-73
2021/03/19 08:13:35;;;;;;;;;15.50;15.50;;;;;;;;5074921;28;8677;-77
2021/03/19 08:16:04;;;;;;;;;18.00;15.75;;;;;;;;5078775;28;8748;-75
2021/03/19 08:18:33;;;;;;;;;16.50;15.00;;;;;;;;5082428;28;9502;-77
2021/03/19 08:21:02;;;;;;;;;18.00;15.50;;;;;;;;5078569;28;8685;-76
2021/03/19 08:23:33;;;;;;;;;14.25;12.75;;;;;;;;5083518;28;8748;-77
2021/03/19 08:26:00;;;;;;;;;14.75;12.25;;;;;;;;5074472;28;8721;-76
2021/03/19 08:28:31;;;;;;;;;10.67;10.00;;;;;;;;5065786;28;8691;-76
2021/03/19 08:31:01;;;;;;;;;13.00;11.67;;;;;;;;5072098;28;8924;-77
2021/03/19 08:33:40;;;;;;;;;16.67;14.33;;;;;;;;5071906;28;8698;-76
2021/03/19 08:36:08;;;;;;;;;9.33;7.33;;;;;;;;5074320;28;8757;-78
2021/03/19 08:38:39;;;;;;;;;12.33;12.33;;;;;;;;5076510;28;8757;-77
2021/03/19 08:41:09;;;;;;;;;9.00;9.00;;;;;;;;5074131;28;8682;-85
2021/03/19 08:43:38;;;;;;;;;10.00;10.00;;;;;;;;5076720;28;9525;-77
2021/03/19 08:46:07;;;;;;;;;10.50;10.50;;;;;;;;5077477;28;11504;-75
2021/03/19 08:48:34;;;;;;;;;8.75;8.25;;;;;;;;5076534;28;11488;-85
2021/03/19 08:51:20;;;;;;;;;9.75;9.75;;;;;;;;5077778;28;11360;-85
2021/03/19 08:54:04;;;;;;;;;10.00;9.50;;;;;;;;5076485;28;11342;-78
2021/03/19 08:56:32;;;;;;;;;10.25;8.50;;;;;;;;5073651;28;11345;-81
2021/03/19 08:58:58;;;;;;;;;7.75;6.75;;;;;;;;5077803;28;11399;-79
2021/03/19 09:01:42;;;;;;;;;9.75;8.25;;;;;;;;5077338;28;11273;-82
2021/03/19 09:04:08;;;;;;;;;8.00;8.00;;;;;;;;5079474;28;9563;-87
2021/03/19 09:06:35;;;;;;;;;7.75;7.00;;;;;;;;5086048;28;11340;-85
2021/03/19 09:09:04;;;;;;;;;7.00;7.00;;;;;;;;5086781;28;8675;-76
2021/03/19 09:11:45;;;;;;;;;6.50;6.50;;;;;;;;5084245;28;11594;-74
2021/03/19 09:14:29;;;;;;;;;8.25;7.50;;;;;;;;5077123;28;10356;-76
2021/03/19 09:16:57;;;;;;;;;8.25;6.75;;;;;;;;5035605;28;10296;-75
2021/03/19 09:19:43;;;;;;;;;7.25;6.50;;;;;;;;5077369;28;10313;-74
2021/03/19 09:22:29;;;;;;;;;5.25;5.25;;;;;;;;5074266;28;10150;-76
2021/03/19 09:25:15;;;;;;;;;8.50;8.50;;;;;;;;5076039;28;10083;-76
2021/03/19 09:27:43;;;;;;;;;7.00;6.00;;;;;;;;5068078;28;9923;-74
2021/03/19 09:30:09;;;;;;;;;5.00;5.00;;;;;;;;5066049;28;9693;-74
2021/03/19 09:32:39;;;;;;;;;5.75;5.50;;;;;;;;5066843;28;9825;-74
2021/03/19 09:35:29;;;;;;;;;4.75;4.00;;;;;;;;5065599;28;9707;-74
2021/03/19 09:37:55;;;;;;;;;4.00;4.00;;;;;;;;5039391;28;9353;-74
2021/03/19 09:40:39;;;;;;;;;3.67;3.33;;;;;;;;5067585;28;9151;-74
2021/03/19 09:43:07;;;;;;;;;3.00;3.00;;;;;;;;5070249;28;11287;-75
2021/03/19 09:45:46;;;;;;;;;4.25;3.25;;;;;;;;5073911;28;8773;-78
2021/03/19 09:48:31;;;;;;;;;4.00;4.00;;;;;;;;5074924;28;8745;-75
2021/03/19 09:51:03;;;;;;;;;4.00;4.00;;;;;;;;5075779;28;8678;-74
2021/03/19 09:53:31;;;;;;;;;4.00;3.00;;;;;;;;5072843;28;8745;-76
2021/03/19 09:55:58;;;;;;;;;4.25;3.00;;;;;;;;5076198;28;8749;-76
2021/03/19 09:58:30;;;;;;;;;4.00;4.00;;;;;;;;5076921;28;8682;-76
2021/03/19 10:00:57;;;;;;;;;3.00;3.00;;;;;;;;5075635;28;8762;-75
2021/03/19 10:03:23;;;;;;;;;2.00;2.00;;;;;;;;5076416;28;8709;-75
2021/03/19 10:05:49;;;;;;;;;3.00;3.00;;;;;;;;5073573;28;8731;-74
2021/03/19 10:08:24;;;;;;;;;3.33;3.33;;;;;;;;5076510;28;9179;-74
2021/03/19 10:10:51;;;;;;;;;3.75;2.25;;;;;;;;5075596;28;9087;-73
2021/03/19 10:13:18;;;;;;;;;4.50;3.75;;;;;;;;5076379;28;8689;-75
2021/03/19 10:15:45;;;;;;;;;5.50;5.50;;;;;;;;5075790;28;8805;-76
2021/03/19 10:18:20;;;;;;;;;2.00;2.00;;;;;;;;5076047;28;8678;-76
2021/03/19 10:20:51;;;;;;;;;4.00;3.00;;;;;;;;5075705;28;8689;-77
2021/03/19 10:23:27;;;;;;;;;2.00;2.00;;;;;;;;5076428;28;8734;-75
2021/03/19 10:26:04;;;;;;;;;3.75;3.00;;;;;;;;5074861;28;8751;-75
2021/03/19 10:28:31;;;;;;;;;2.25;1.75;;;;;;;;5072371;28;8751;-77
2021/03/19 10:30:59;;;;;;;;;2.25;2.25;;;;;;;;5076191;28;8685;-77
2021/03/19 10:33:30;;;;;;;;;2.75;2.75;;;;;;;;5079225;28;8768;-76
2021/03/19 10:35:59;;;;;;;;;4.50;4.50;;;;;;;;5076042;28;8749;-84
2021/03/19 10:38:29;;;;;;;;;4.00;3.00;;;;;;;;5077168;28;8685;-91
2021/03/19 10:40:59;;;;;;;;;5.75;4.25;;;;;;;;5076863;28;8744;-85
2021/03/19 10:43:27;;;;;;;;;3.25;3.00;;;;;;;;5077064;28;8752;-93
2021/03/19 10:45:55;;;;;;;;;10.75;10.00;;;;;;;;5078755;28;9104;-79
2021/03/19 10:48:27;;;;;;;;;4.33;4.00;;;;;;;;5080014;28;9491;-82
2021/03/19 10:51:01;;;;;;;;;4.00;4.00;;;;;;;;5079126;28;9260;-80
2021/03/19 10:53:37;;;;;;;;;4.25;4.00;;;;;;;;5079727;28;9649;-82
2021/03/19 10:56:07;;;;;;;;;7.25;4.00;;;;;;;;5075656;28;9716;-82
2021/03/19 10:58:38;;;;;;;;;7.25;5.75;;;;;;;;5075876;28;9903;-82
2021/03/19 11:01:19;;;;;;;;;66.67;53.33;;;;;;;;5075684;28;10504;-83
2021/03/19 11:03:48;;;;;;;;;4.25;4.25;;;;;;;;5075750;28;8779;-84
2021/03/19 11:06:29;;;;;;;;;3.00;3.00;;;;;;;;5078705;28;10445;-81
2021/03/19 11:09:04;;;;;;;;;3.00;3.00;;;;;;;;5078500;28;10530;-78
2021/03/19 11:11:30;;;;;;;;;3.00;3.00;;;;;;;;5075616;28;10425;-84
2021/03/19 11:14:02;;;;;;;;;3.25;2.25;;;;;;;;5078964;28;10521;-81
2021/03/19 11:16:31;;;;;;;;;2.00;2.00;;;;;;;;5078779;28;10570;-81
2021/03/19 11:19:02;;;;;;;;;3.00;3.00;;;;;;;;5078381;28;11466;-74
2021/03/19 11:21:30;;;;;;;;;2.50;2.50;;;;;;;;5078028;28;10946;-76
2021/03/19 11:24:20;;;;;;;;;4.00;4.00;;;;;;;;5074486;28;10836;-75
2021/03/19 11:26:54;;;;;;;;;2.00;2.00;;;;;;;;5056455;28;10900;-74
2021/03/19 11:29:23;;;;;;;;;3.75;3.00;;;;;;;;5078561;28;11104;-78
2021/03/19 11:31:57;;;;;;;;;5.50;4.50;;;;;;;;5076861;28;11363;-80
2021/03/19 11:34:31;;;;;;;;;3.50;2.75;;;;;;;;5078346;28;11367;-75
2021/03/19 11:36:59;;;;;;;;;3.25;3.25;;;;;;;;5076404;28;11326;-75
2021/03/19 11:39:40;;;;;;;;;3.00;3.00;;;;;;;;5079096;28;11287;-81
2021/03/19 11:42:06;;;;;;;;;4.00;4.00;;;;;;;;5076831;28;11502;-77
2021/03/19 11:44:33;;;;;;;;;2.25;2.00;;;;;;;;5083640;28;11279;-77
2021/03/19 11:47:06;;;;;;;;;3.00;3.00;;;;;;;;5083633;28;11260;-79
2021/03/19 11:49:32;;;;;;;;;4.50;3.00;;;;;;;;5088191;28;11362;-80
2021/03/19 11:51:58;;;;;;;;;3.00;2.25;;;;;;;;5088999;28;11442;-86
2021/03/19 11:54:24;;;;;;;;;1.75;1.75;;;;;;;;5070323;28;11414;-83
2021/03/19 11:56:50;;;;;;;;;0.50;0.50;;;;;;;;5065037;28;8626;-91
2021/03/19 11:59:16;;;;;;;;;2.00;2.00;;;;;;;;5071455;28;12249;-88
2021/03/19 12:01:43;;;;;;;;;2.00;2.00;;;;;;;;5077056;28;11535;-90
2021/03/19 12:04:11;;;;;;;;;3.00;2.00;;;;;;;;5079242;28;11349;-93
2021/03/19 12:06:37;;;;;;;;;3.50;2.75;;;;;;;;5079179;28;11364;-79
2021/03/19 12:09:04;;;;;;;;;1.50;1.50;;;;;;;;5078442;28;11401;-82
2021/03/19 12:11:32;;;;;;;;;2.00;2.00;;;;;;;;5077602;28;8708;-81
2021/03/19 12:13:59;;;;;;;;;3.00;2.75;;;;;;;;5078692;28;11342;-81
2021/03/19 12:16:25;;;;;;;;;1.00;1.00;;;;;;;;5072749;28;11382;-80
2021/03/19 12:18:52;;;;;;;;;3.50;3.50;;;;;;;;5076568;28;11331;-80
2021/03/19 12:21:19;;;;;;;;;3.00;3.00;;;;;;;;5076149;28;11389;-81
2021/03/19 12:23:45;;;;;;;;;2.50;2.00;;;;;;;;5074709;28;11406;-79
2021/03/19 12:26:11;;;;;;;;;3.25;3.00;;;;;;;;5075942;28;11352;-80
2021/03/19 12:28:37;;;;;;;;;5.00;4.00;;;;;;;;5075929;28;11405;-79
2021/03/19 12:31:03;;;;;;;;;2.75;2.75;;;;;;;;5076043;28;11432;-78
2021/03/19 12:33:31;;;;;;;;;3.75;3.00;;;;;;;;5075851;28;11302;-77
2021/03/19 12:35:58;;;;;;;;;2.00;2.00;;;;;;;;5076268;28;11457;-77
2021/03/19 12:38:24;;;;;;;;;5.00;5.00;;;;;;;;5075618;28;11424;-77
2021/03/19 12:40:50;;;;;;;;;2.00;2.00;;;;;;;;5075267;28;12133;-78
2021/03/19 12:43:16;;;;;;;;;4.00;4.00;;;;;;;;5075776;28;11347;-77
2021/03/19 12:45:43;;;;;;;;;4.00;3.00;;;;;;;;5076392;28;11310;-77
2021/03/19 12:48:09;;;;;;;;;3.00;2.00;;;;;;;;5077377;28;8819;-77
2021/03/19 12:50:35;;;;;;;;;3.00;3.00;;;;;;;;5076078;28;11329;-76
2021/03/19 12:53:03;;;;;;;;;3.50;3.00;;;;;;;;5077786;28;12193;-75
2021/03/19 12:55:31;;;;;;;;;3.00;2.00;;;;;;;;5072622;28;11395;-76
2021/03/19 12:57:57;;;;;;;;;3.25;2.00;;;;;;;;5076978;28;11383;-74
2021/03/19 13:00:24;;;;;;;;;1.00;1.00;;;;;;;;5077226;28;11342;-75
2021/03/19 13:02:50;;;;;;;;;3.50;2.00;;;;;;;;5075656;28;8670;-75
2021/03/19 13:05:19;;;;;;;;;1.50;1.50;;;;;;;;5076279;28;11326;-75
2021/03/19 13:07:45;;;;;;;;;3.00;3.00;;;;;;;;5066266;28;9588;-77
2021/03/19 13:10:12;;;;;;;;;3.75;3.75;;;;;;;;5066220;28;11388;-77
2021/03/19 13:12:39;;;;;;;;;4.50;4.00;;;;;;;;5067283;28;8658;-77
2021/03/19 13:15:06;;;;;;;;;3.00;3.00;;;;;;;;5064260;28;11484;-76
2021/03/19 13:17:32;;;;;;;;;5.00;3.00;;;;;;;;5072338;28;11317;-76
2021/03/19 13:19:58;;;;;;;;;4.00;4.00;;;;;;;;5076798;28;11312;-76
2021/03/19 13:22:24;;;;;;;;;4.00;4.00;;;;;;;;5076755;28;12217;-75
2021/03/19 13:24:50;;;;;;;;;2.00;2.00;;;;;;;;5076379;28;8693;-75
2021/03/19 13:27:17;;;;;;;;;3.50;3.50;;;;;;;;5077135;28;8733;-78
2021/03/19 13:29:43;;;;;;;;;3.75;3.50;;;;;;;;5076203;28;8709;-77
2021/03/19 13:32:09;;;;;;;;;4.00;2.75;;;;;;;;5076276;28;11309;-77
2021/03/19 13:34:35;;;;;;;;;5.25;3.25;;;;;;;;5076844;28;8840;-76
2021/03/19 13:37:01;;;;;;;;;3.50;2.75;;;;;;;;5077178;28;11385;-76
2021/03/19 13:39:30;;;;;;;;;2.00;2.00;;;;;;;;5076566;28;11325;-76
2021/03/19 13:41:56;;;;;;;;;3.75;3.25;;;;;;;;5076370;28;11377;-76
2021/03/19 13:44:22;;;;;;;;;2.75;2.75;;;;;;;;5076845;28;11338;-76
2021/03/19 13:46:49;;;;;;;;;4.00;3.00;;;;;;;;5075776;28;11328;-77
2021/03/19 13:49:14;;;;;;;;;5.00;2.50;;;;;;;;5076070;28;11379;-77
2021/03/19 13:51:40;;;;;;;;;2.50;2.50;;;;;;;;5076154;28;11332;-77
2021/03/19 13:54:07;;;;;;;;;4.00;3.00;;;;;;;;5076589;28;8803;-76
2021/03/19 13:56:33;;;;;;;;;4.00;4.00;;;;;;;;5075577;28;8662;-76
2021/03/19 13:58:59;;;;;;;;;3.50;3.50;;;;;;;;5076196;28;11464;-76
2021/03/19 14:01:27;;;;;;;;;4.00;3.00;;;;;;;;5075952;28;8726;-75
2021/03/19 14:03:53;;;;;;;;;3.00;3.00;;;;;;;;5074712;28;11336;-76
2021/03/19 14:06:19;;;;;;;;;4.25;2.75;;;;;;;;5076087;28;11315;-76
2021/03/19 14:08:45;;;;;;;;;3.00;3.00;;;;;;;;5075326;28;11454;-76
2021/03/19 14:11:12;;;;;;;;;2.50;2.00;;;;;;;;5076404;28;11305;-76
2021/03/19 14:13:38;;;;;;;;;3.00;3.00;;;;;;;;5074436;28;11406;-76
2021/03/19 14:16:04;;;;;;;;;5.25;4.00;;;;;;;;5075791;28;11405;-76
2021/03/19 14:18:32;;;;;;;;;2.00;2.00;;;;;;;;5079569;28;11314;-75
2021/03/19 14:20:58;;;;;;;;;3.00;3.00;;;;;;;;5079702;28;12489;-75
2021/03/19 14:23:25;;;;;;;;;3.25;2.25;;;;;;;;5079371;28;11346;-74
2021/03/19 14:25:51;;;;;;;;;2.75;2.75;;;;;;;;5079151;28;11319;-71
2021/03/19 14:28:19;;;;;;;;;3.50;3.50;;;;;;;;5079248;28;11441;-71
2021/03/19 14:30:45;;;;;;;;;3.25;3.25;;;;;;;;5079107;28;12033;-68
2021/03/19 14:33:11;;;;;;;;;4.00;3.00;;;;;;;;5079736;28;11401;-71
2021/03/19 14:35:38;;;;;;;;;2.25;2.00;;;;;;;;5078732;28;8745;-69
2021/03/19 14:38:04;;;;;;;;;3.50;2.00;;;;;;;;5079674;28;8783;-71
2021/03/19 14:40:32;;;;;;;;;2.00;2.00;;;;;;;;5080252;28;11392;-80
2021/03/19 14:42:59;;;;;;;;;2.50;2.50;;;;;;;;5079100;28;11396;-80
2021/03/19 14:45:25;;;;;;;;;3.50;3.00;;;;;;;;5079320;28;11318;-80
2021/03/19 14:47:52;;;;;;;;;3.50;3.50;;;;;;;;5078564;28;11348;-78
2021/03/19 14:50:19;;;;;;;;;3.25;2.75;;;;;;;;5079151;28;11307;-76
2021/03/19 14:52:46;;;;;;;;;2.50;2.50;;;;;;;;5074402;28;11449;-76
2021/03/19 14:55:12;;;;;;;;;3.00;3.00;;;;;;;;5068047;28;12686;-78
2021/03/19 14:57:38;;;;;;;;;3.50;3.00;;;;;;;;5064459;28;11456;-78